Time;durP1;ratioP1;P1;durP2;ratioP2;P2;SDS_P1;SDS_P2;PMS_P1;PMS_P2;Temp;Humidity;BMP_temperature;BMP_pressure;BME280_temperature;BME280_humidity;BME280_pressure;Samples;Min_cycle;Max_cycle;Signal;HPM_P1;HPM_P2
2023/05/20 00:01:00;;;;;;;13.95;8.73;;;16.70;99.90;;;;;;6261758;23;20065;-93
2023/05/20 00:03:26;;;;;;;13.77;9.43;;;16.80;99.90;;;;;;6221484;23;20004;-92
2023/05/20 00:05:53;;;;;;;14.52;9.35;;;16.80;99.90;;;;;;6221532;23;20099;-92
2023/05/20 00:08:20;;;;;;;11.57;8.45;;;16.80;99.90;;;;;;6221295;23;20000;-93
2023/05/20 00:10:49;;;;;;;10.18;8.20;;;16.80;99.90;;;;;;6220994;23;20062;-91
2023/05/20 00:13:15;;;;;;;10.07;8.95;;;16.90;99.90;;;;;;6221368;23;20001;-93
2023/05/20 00:15:42;;;;;;;12.57;9.27;;;16.90;99.90;;;;;;6220656;23;20008;-93
2023/05/20 00:18:09;;;;;;;11.48;8.93;;;17.00;99.90;;;;;;6220990;23;20008;-93
2023/05/20 00:20:35;;;;;;;13.10;9.82;;;17.00;99.90;;;;;;6221062;23;20012;-94
2023/05/20 00:23:01;;;;;;;10.10;9.00;;;17.10;99.90;;;;;;6220754;23;20001;-93
2023/05/20 00:25:34;;;;;;;12.60;9.20;;;17.10;99.90;;;;;;6221405;23;20404;-94
2023/05/20 00:28:03;;;;;;;11.23;8.52;;;17.10;99.90;;;;;;6246451;22;20027;-94
2023/05/20 00:30:46;;;;;;;10.18;9.00;;;17.10;99.90;;;;;;6245041;23;20011;-95
2023/05/20 00:33:53;;;;;;;13.30;9.63;;;17.20;99.90;;;;;;6244582;23;20004;-93
2023/05/20 00:37:00;;;;;;;11.88;9.65;;;17.10;99.90;;;;;;6222375;23;20095;-93
2023/05/20 00:39:29;;;;;;;10.10;9.05;;;17.20;99.90;;;;;;6221151;23;20065;-92
2023/05/20 00:41:59;;;;;;;12.05;9.20;;;17.10;99.90;;;;;;6221331;23;20000;-93
2023/05/20 00:44:28;;;;;;;12.23;9.55;;;17.10;99.90;;;;;;6220358;23;20057;-93
2023/05/20 00:46:58;;;;;;;11.40;10.05;;;17.10;99.90;;;;;;6220419;23;20035;-94
2023/05/20 00:49:30;;;;;;;12.88;9.48;;;17.10;99.90;;;;;;6240527;22;20099;-93
2023/05/20 00:52:02;;;;;;;14.07;10.32;;;17.10;99.90;;;;;;6215225;23;20422;-94
2023/05/20 00:54:34;;;;;;;13.88;9.48;;;17.10;99.90;;;;;;6190921;23;20060;-93
2023/05/20 00:57:06;;;;;;;14.70;10.48;;;17.20;99.90;;;;;;6190103;23;20438;-94
2023/05/20 00:59:35;;;;;;;18.17;10.50;;;17.20;99.90;;;;;;6190316;23;20017;-93
2023/05/20 01:02:05;;;;;;;13.30;9.93;;;17.20;99.90;;;;;;6191524;23;20311;-92
2023/05/20 01:04:33;;;;;;;11.13;9.70;;;17.20;99.90;;;;;;6191418;23;20012;-93
2023/05/20 01:07:06;;;;;;;12.23;9.30;;;17.10;99.90;;;;;;6216674;23;20051;-92
2023/05/20 01:09:36;;;;;;;11.15;9.00;;;17.00;99.90;;;;;;6215679;23;20017;-94
2023/05/20 01:12:22;;;;;;;10.93;9.82;;;16.90;99.90;;;;;;6190667;23;20065;-92
2023/05/20 01:14:55;;;;;;;12.63;9.70;;;16.90;99.90;;;;;;6190482;23;20023;-93
2023/05/20 01:17:26;;;;;;;13.27;10.20;;;16.90;99.90;;;;;;6191615;23;20005;-92
2023/05/20 01:23:41;;;;;;;15.85;9.60;;;16.80;99.90;;;;;;6219213;23;20015;-92
2023/05/20 01:26:13;;;;;;;11.00;8.95;;;16.80;99.90;;;;;;6217253;23;20009;-93
2023/05/20 01:28:45;;;;;;;12.32;9.18;;;16.80;99.90;;;;;;6217230;23;20008;-93
2023/05/20 01:31:20;;;;;;;10.57;9.48;;;16.70;99.90;;;;;;6208735;23;20012;-92
2023/05/20 01:33:57;;;;;;;13.57;9.85;;;16.70;99.90;;;;;;6219030;23;20008;-92
2023/05/20 01:36:47;;;;;;;11.00;9.05;;;16.70;99.90;;;;;;6217195;23;20009;-94
2023/05/20 01:39:40;;;;;;;11.82;9.40;;;16.80;99.90;;;;;;6191684;23;20040;-92
2023/05/20 01:42:17;;;;;;;15.27;9.65;;;16.80;99.90;;;;;;6192152;23;20545;-93
2023/05/20 01:44:50;;;;;;;11.90;9.50;;;16.80;99.90;;;;;;6192277;23;20009;-92
2023/05/20 01:47:30;;;;;;;10.02;8.85;;;16.80;99.90;;;;;;6192442;23;20008;-92
2023/05/20 01:50:33;;;;;;;14.07;9.38;;;16.70;99.90;;;;;;6219938;23;20407;-93
2023/05/20 01:53:03;;;;;;;18.85;10.73;;;16.70;99.90;;;;;;6156723;23;20013;-92
2023/05/20 01:55:40;;;;;;;11.82;9.55;;;16.60;99.90;;;;;;6108170;23;20017;-92
2023/05/20 01:58:18;;;;;;;11.80;9.95;;;16.60;99.90;;;;;;6155781;23;20308;-92
2023/05/20 02:00:51;;;;;;;12.05;9.35;;;16.50;99.90;;;;;;6131559;23;20016;-92
2023/05/20 02:03:21;;;;;;;10.73;9.25;;;16.50;99.90;;;;;;6156186;23;20014;-91
2023/05/20 02:05:58;;;;;;;18.05;10.15;;;16.60;99.90;;;;;;6155619;23;20013;-93
2023/05/20 02:08:34;;;;;;;13.93;9.82;;;16.50;99.90;;;;;;6107836;23;20145;-92
2023/05/20 02:11:27;;;;;;;;;;;;;;;;;;;;;
2023/05/20 02:17:27;;;;;;;12.68;9.63;;;16.50;99.90;;;;;;6151600;23;20009;-92
2023/05/20 02:20:55;;;;;;;;;;;;;;;;;;;;;
2023/05/20 02:23:38;;;;;;;18.52;10.13;;;16.50;99.90;;;;;;6065728;23;20035;-93
2023/05/20 02:26:57;;;;;;;;;;;;;;;;;;;;;
2023/05/20 02:29:47;;;;;;;11.88;9.32;;;16.40;99.90;;;;;;6096982;23;20017;-93
2023/05/20 02:32:16;;;;;;;13.77;9.95;;;16.30;99.90;;;;;;6073511;23;20440;-93
2023/05/20 02:34:43;;;;;;;14.65;10.23;;;16.30;99.90;;;;;;6073346;23;20344;-91
2023/05/20 02:37:18;;;;;;;15.95;9.60;;;16.30;99.90;;;;;;6097336;23;20026;-91
2023/05/20 02:39:50;;;;;;;14.48;9.73;;;16.30;99.90;;;;;;6073183;23;20022;-94
2023/05/20 02:42:17;;;;;;;14.35;9.00;;;16.30;99.90;;;;;;6073428;23;20093;-91
2023/05/20 02:44:44;;;;;;;15.65;8.85;;;16.30;99.90;;;;;;6073080;23;20037;-91
2023/05/20 02:47:13;;;;;;;18.00;9.50;;;16.30;99.90;;;;;;6072921;23;20356;-92
2023/05/20 02:49:41;;;;;;;14.35;9.15;;;16.30;99.90;;;;;;6074319;23;20033;-92
2023/05/20 02:52:11;;;;;;;13.57;9.23;;;16.20;99.90;;;;;;6074843;23;20117;-91
2023/05/20 02:54:40;;;;;;;21.15;9.38;;;16.20;99.90;;;;;;6073794;23;20014;-93
2023/05/20 02:57:09;;;;;;;17.55;10.35;;;16.20;99.90;;;;;;6073432;23;20014;-92
2023/05/20 02:59:45;;;;;;;15.25;9.65;;;16.20;99.90;;;;;;6101576;23;20046;-94
2023/05/20 03:02:18;;;;;;;16.35;9.70;;;16.20;99.90;;;;;;6080358;23;20017;-92
2023/05/20 03:04:46;;;;;;;13.65;8.93;;;16.20;99.90;;;;;;6078760;23;20010;-92
2023/05/20 03:07:22;;;;;;;13.18;8.35;;;16.20;99.90;;;;;;6155744;23;20422;-92
2023/05/20 03:09:51;;;;;;;13.60;8.82;;;16.20;99.90;;;;;;6221460;23;20060;-92
2023/05/20 03:12:18;;;;;;;18.30;9.15;;;16.20;99.90;;;;;;6221284;23;20012;-92
2023/05/20 03:14:49;;;;;;;13.38;8.70;;;16.20;99.90;;;;;;6248249;23;20445;-94
2023/05/20 03:17:16;;;;;;;16.52;8.73;;;16.20;99.90;;;;;;6220918;23;20030;-93
2023/05/20 03:19:43;;;;;;;14.38;8.73;;;16.30;99.90;;;;;;6220935;23;20012;-91
2023/05/20 03:22:10;;;;;;;16.75;8.88;;;16.30;99.90;;;;;;6246091;22;20126;-92
2023/05/20 03:24:37;;;;;;;15.00;9.07;;;16.30;99.90;;;;;;6220953;23;20036;-94
2023/05/20 03:27:04;;;;;;;15.30;8.98;;;16.30;99.90;;;;;;6220980;23;20092;-93
2023/05/20 03:29:30;;;;;;;14.18;8.38;;;16.30;99.90;;;;;;6221143;23;20035;-92
2023/05/20 03:32:06;;;;;;;12.35;8.90;;;16.40;99.90;;;;;;6220910;23;20005;-92
2023/05/20 03:34:33;;;;;;;15.93;9.70;;;16.50;99.90;;;;;;6245833;23;20087;-95
2023/05/20 03:37:00;;;;;;;15.85;10.82;;;16.50;99.90;;;;;;6220617;23;20428;-92
2023/05/20 03:39:27;;;;;;;17.50;9.77;;;16.60;99.90;;;;;;6245637;23;20437;-92
2023/05/20 03:41:55;;;;;;;18.75;9.52;;;16.70;99.90;;;;;;6220740;23;20028;-91
2023/05/20 03:44:21;;;;;;;14.23;9.38;;;16.70;99.90;;;;;;6246060;23;20012;-92
2023/05/20 03:46:48;;;;;;;14.68;9.05;;;16.70;99.90;;;;;;6220805;23;20087;-91
2023/05/20 03:49:15;;;;;;;12.80;9.40;;;16.80;99.90;;;;;;6220841;23;20075;-91
2023/05/20 03:51:42;;;;;;;14.98;9.23;;;16.80;99.90;;;;;;6214891;23;20030;-92
2023/05/20 03:54:11;;;;;;;17.98;9.50;;;16.90;99.90;;;;;;6220385;23;20015;-93
2023/05/20 03:56:37;;;;;;;12.15;8.85;;;17.00;99.90;;;;;;6220802;23;20012;-92
2023/05/20 03:59:04;;;;;;;17.83;9.43;;;17.00;99.90;;;;;;6220573;23;20016;-91
2023/05/20 04:01:32;;;;;;;15.65;9.35;;;17.00;99.90;;;;;;6220443;22;20012;-92
2023/05/20 04:03:59;;;;;;;11.75;9.05;;;17.10;99.90;;;;;;6220687;23;20509;-92
2023/05/20 04:06:25;;;;;;;9.70;8.50;;;17.10;99.90;;;;;;6220640;23;20004;-91
2023/05/20 04:08:52;;;;;;;11.32;8.73;;;17.10;99.90;;;;;;6220902;23;20507;-91
2023/05/20 04:11:20;;;;;;;15.35;8.52;;;17.10;99.90;;;;;;6245444;23;20481;-94
2023/05/20 04:13:47;;;;;;;10.82;8.43;;;17.10;99.90;;;;;;6220764;23;20011;-92
2023/05/20 04:16:13;;;;;;;11.07;8.52;;;17.10;99.90;;;;;;6220725;23;20004;-92
2023/05/20 04:18:40;;;;;;;12.75;9.05;;;17.10;99.90;;;;;;6237371;23;20081;-92
2023/05/20 04:21:07;;;;;;;16.95;9.45;;;17.10;99.90;;;;;;6222685;23;20009;-92
2023/05/20 04:23:36;;;;;;;10.35;9.27;;;17.10;99.90;;;;;;6220532;23;20004;-93
2023/05/20 04:26:03;;;;;;;12.05;9.55;;;17.10;99.90;;;;;;6220656;23;20039;-92
2023/05/20 04:28:31;;;;;;;14.20;9.50;;;17.10;99.90;;;;;;6220706;23;20004;-92
2023/05/20 04:31:04;;;;;;;12.73;9.60;;;17.20;99.90;;;;;;6220128;23;20004;-92
2023/05/20 04:33:36;;;;;;;12.23;9.93;;;17.20;99.90;;;;;;6244860;22;20005;-93
2023/05/20 04:36:05;;;;;;;9.93;8.90;;;17.20;99.90;;;;;;6220494;23;20019;-92
2023/05/20 04:38:32;;;;;;;11.18;9.80;;;17.30;99.90;;;;;;6220029;23;20032;-93
2023/05/20 04:41:05;;;;;;;12.57;9.27;;;17.30;99.90;;;;;;6220121;23;20376;-91
2023/05/20 04:43:32;;;;;;;12.52;9.20;;;17.30;99.90;;;;;;6245634;22;20004;-94
2023/05/20 04:46:00;;;;;;;23.08;9.52;;;17.30;99.90;;;;;;6220588;23;20377;-91
2023/05/20 04:48:32;;;;;;;13.88;10.00;;;17.30;99.90;;;;;;6220207;23;20020;-94
2023/05/20 04:50:58;;;;;;;15.18;9.93;;;17.30;99.90;;;;;;6220665;23;20008;-92
2023/05/20 04:53:25;;;;;;;16.48;10.13;;;17.30;99.90;;;;;;6222310;23;20012;-92
2023/05/20 04:55:55;;;;;;;11.82;9.25;;;17.40;99.90;;;;;;6247756;23;20004;-92
2023/05/20 04:58:24;;;;;;;12.63;9.15;;;17.40;99.90;;;;;;6222167;23;20093;-92
2023/05/20 05:00:51;;;;;;;10.80;9.38;;;17.40;99.90;;;;;;6222200;23;20433;-92
2023/05/20 05:03:17;;;;;;;17.13;9.95;;;17.40;99.90;;;;;;6222239;23;20087;-91
2023/05/20 05:05:44;;;;;;;18.15;9.73;;;17.40;99.90;;;;;;6248050;23;20430;-92
2023/05/20 05:08:11;;;;;;;16.48;10.70;;;17.40;99.90;;;;;;6222458;23;20005;-92
2023/05/20 05:10:45;;;;;;;12.93;10.27;;;17.40;99.90;;;;;;6247628;23;20034;-91
2023/05/20 05:13:12;;;;;;;11.77;10.50;;;17.40;99.90;;;;;;6247559;23;20038;-90
2023/05/20 05:15:38;;;;;;;12.57;9.50;;;17.40;99.90;;;;;;6247348;23;20457;-92
2023/05/20 05:18:06;;;;;;;15.07;10.02;;;17.40;99.90;;;;;;6222154;23;20008;-91
2023/05/20 05:20:35;;;;;;;11.13;9.02;;;17.50;99.90;;;;;;6247407;23;20039;-92
2023/05/20 05:23:02;;;;;;;9.68;8.57;;;17.50;99.90;;;;;;6222217;23;20023;-91
2023/05/20 05:25:32;;;;;;;11.55;9.05;;;17.60;99.90;;;;;;6247563;23;20015;-93
2023/05/20 05:28:03;;;;;;;10.80;8.88;;;17.60;99.90;;;;;;6221982;23;20012;-92
2023/05/20 05:30:30;;;;;;;16.48;8.68;;;17.70;99.90;;;;;;6247151;23;20042;-93
2023/05/20 05:32:56;;;;;;;12.80;9.07;;;17.80;99.90;;;;;;6222337;23;20000;-91
2023/05/20 05:35:23;;;;;;;10.50;9.32;;;18.00;99.90;;;;;;6222219;23;20035;-92
2023/05/20 05:37:56;;;;;;;12.82;9.25;;;18.10;99.90;;;;;;6221933;23;20008;-92
2023/05/20 05:40:22;;;;;;;16.33;9.32;;;18.30;99.90;;;;;;6222446;23;20016;-92
2023/05/20 05:42:49;;;;;;;16.38;9.73;;;18.40;99.90;;;;;;6247233;23;20004;-92
2023/05/20 05:45:16;;;;;;;11.02;9.35;;;18.50;99.90;;;;;;6221924;23;20091;-91
2023/05/20 05:47:42;;;;;;;13.40;10.38;;;18.60;99.90;;;;;;6233525;23;19990;-93
2023/05/20 05:50:09;;;;;;;10.93;10.02;;;18.70;99.90;;;;;;6254948;22;20092;-93
2023/05/20 05:52:37;;;;;;;11.23;10.32;;;18.80;99.90;;;;;;6282996;22;20017;-91
2023/05/20 05:55:06;;;;;;;12.05;10.90;;;18.70;99.90;;;;;;6252845;22;20008;-93
2023/05/20 05:57:33;;;;;;;12.00;10.93;;;18.80;99.90;;;;;;6252319;22;20027;-93
2023/05/20 06:00:02;;;;;;;11.13;10.02;;;18.90;99.90;;;;;;6252562;22;20019;-93
2023/05/20 06:02:34;;;;;;;12.73;11.45;;;19.00;99.90;;;;;;6277715;22;19999;-91
2023/05/20 06:05:05;;;;;;;13.75;10.82;;;18.90;99.90;;;;;;6252254;22;20103;-93
2023/05/20 06:07:37;;;;;;;11.50;10.40;;;18.90;99.90;;;;;;6226744;22;20015;-93
2023/05/20 06:10:06;;;;;;;12.32;11.20;;;18.90;99.90;;;;;;6277703;22;20099;-93
2023/05/20 06:12:39;;;;;;;12.07;10.88;;;18.90;99.90;;;;;;6226773;22;20035;-91
2023/05/20 06:15:06;;;;;;;16.17;12.15;;;18.90;99.90;;;;;;6252167;22;20008;-91
2023/05/20 06:17:36;;;;;;;19.10;12.50;;;18.70;99.90;;;;;;6252588;22;20003;-93
2023/05/20 06:20:26;;;;;;;18.40;11.93;;;18.70;99.90;;;;;;6279529;22;20311;-92
2023/05/20 06:22:56;;;;;;;20.15;12.52;;;18.90;99.90;;;;;;6236594;22;20018;-92
2023/05/20 06:28:30;;;;;;;11.93;10.63;;;19.00;99.90;;;;;;6255167;22;20004;-93
